Time;durP1;ratioP1;P1;durP2;ratioP2;P2;SDS_P1;SDS_P2;PMS_P1;PMS_P2;Temp;Humidity;BMP_temperature;BMP_pressure;BME280_temperature;BME280_humidity;BME280_pressure;Samples;Min_cycle;Max_cycle;Signal;HPM_P1;HPM_P2
2022/09/10 00:01:15;;;;;;;3.72;0.68;;;;;;;17.85;100.00;100381.63;5024896;28;20029;-63
2022/09/10 00:03:42;;;;;;;4.25;0.50;;;;;;;17.82;100.00;100370.63;5024093;28;20155;-62
2022/09/10 00:06:09;;;;;;;3.30;0.70;;;;;;;17.80;100.00;100372.66;5028306;28;20104;-62
2022/09/10 00:08:36;;;;;;;0.75;0.30;;;;;;;17.77;100.00;100363.31;5025484;28;20040;-60
2022/09/10 00:11:05;;;;;;;3.45;0.57;;;;;;;17.73;100.00;100356.81;5025929;28;20029;-63
2022/09/10 00:13:31;;;;;;;2.15;0.40;;;;;;;17.72;100.00;100363.06;5027660;28;20029;-61
2022/09/10 00:15:58;;;;;;;6.20;0.55;;;;;;;17.76;100.00;100366.13;5026691;28;20052;-61
2022/09/10 00:18:24;;;;;;;2.53;0.50;;;;;;;17.69;100.00;100379.28;5021261;28;20128;-63
2022/09/10 00:20:52;;;;;;;2.88;0.50;;;;;;;17.69;100.00;100376.63;5028190;28;20120;-62
2022/09/10 00:23:20;;;;;;;2.15;0.40;;;;;;;17.66;100.00;100377.03;5025779;28;20037;-60
2022/09/10 00:25:46;;;;;;;6.55;0.50;;;;;;;17.66;100.00;100379.66;5024401;28;20033;-60
2022/09/10 00:28:12;;;;;;;1.08;0.45;;;;;;;17.65;100.00;100393.84;5027509;28;20025;-62
2022/09/10 00:30:41;;;;;;;1.15;0.40;;;;;;;17.66;100.00;100392.00;5028388;28;20026;-60
2022/09/10 00:33:07;;;;;;;2.90;0.57;;;;;;;17.63;100.00;100400.25;5025067;28;20037;-61
2022/09/10 00:35:33;;;;;;;2.72;0.55;;;;;;;17.59;100.00;100400.66;5026357;28;20034;-62
2022/09/10 00:37:59;;;;;;;3.30;0.88;;;;;;;17.57;100.00;100413.19;5026099;28;20484;-63
2022/09/10 00:40:25;;;;;;;2.13;0.40;;;;;;;17.55;100.00;100409.94;5009574;28;20046;-63
2022/09/10 00:42:51;;;;;;;2.95;0.60;;;;;;;17.50;100.00;100401.78;5025292;28;20026;-60
2022/09/10 00:45:19;;;;;;;1.77;0.50;;;;;;;17.45;100.00;100398.94;5016716;28;20045;-63
2022/09/10 00:47:47;;;;;;;3.95;0.40;;;;;;;17.42;100.00;100401.97;5036659;28;20041;-60
2022/09/10 00:50:22;;;;;;;4.07;0.30;;;;;;;17.39;100.00;100397.06;5008495;28;20171;-61
2022/09/10 00:52:51;;;;;;;2.87;0.60;;;;;;;17.36;100.00;100378.19;5027739;28;20117;-64
2022/09/10 00:55:17;;;;;;;4.65;0.50;;;;;;;17.33;100.00;100378.56;5027231;28;20499;-61
2022/09/10 00:57:45;;;;;;;2.03;0.45;;;;;;;17.28;100.00;100376.50;5025903;28;20029;-63
2022/09/10 01:00:13;;;;;;;3.45;0.65;;;;;;;17.27;100.00;100364.34;5041971;28;20079;-62
2022/09/10 01:02:40;;;;;;;1.52;0.60;;;;;;;17.23;100.00;100361.28;5026544;28;20075;-64
2022/09/10 01:05:08;;;;;;;3.67;0.50;;;;;;;17.25;100.00;100366.34;5031425;28;20182;-63
2022/09/10 01:07:34;;;;;;;1.98;0.40;;;;;;;17.24;100.00;100365.53;5025863;28;20081;-63
2022/09/10 01:10:05;;;;;;;2.70;0.43;;;;;;;17.23;100.00;100363.91;5025653;28;20033;-63
2022/09/10 01:12:40;;;;;;;0.68;0.40;;;;;;;17.24;100.00;100364.72;5035828;28;20080;-62
2022/09/10 01:15:27;;;;;;;2.30;0.60;;;;;;;17.22;100.00;100361.47;5013093;28;20034;-59
2022/09/10 01:18:10;;;;;;;4.22;0.45;;;;;;;17.16;100.00;100362.22;5013331;28;20503;-60
2022/09/10 01:20:51;;;;;;;2.13;0.40;;;;;;;17.09;100.00;100361.34;5033896;28;20059;-62
2022/09/10 01:23:40;;;;;;;3.85;1.25;;;;;;;17.07;100.00;100358.09;5031603;28;20033;-61
2022/09/10 01:26:11;;;;;;;1.98;0.50;;;;;;;17.08;100.00;100359.72;5006871;28;20556;-62
2022/09/10 01:28:48;;;;;;;5.78;0.40;;;;;;;17.01;100.00;100358.88;5034155;28;20393;-61
2022/09/10 01:31:22;;;;;;;1.10;0.40;;;;;;;16.96;100.00;100369.16;5013110;28;20057;-60
2022/09/10 01:34:09;;;;;;;3.65;0.30;;;;;;;16.93;100.00;100372.97;5027336;28;20377;-62
2022/09/10 01:36:40;;;;;;;4.75;0.47;;;;;;;16.92;100.00;100372.16;5025086;28;20401;-62
2022/09/10 01:39:06;;;;;;;5.50;0.47;;;;;;;16.89;100.00;100383.06;5032440;28;20036;-61
2022/09/10 01:41:32;;;;;;;2.42;0.40;;;;;;;16.82;100.00;100382.16;5026012;28;20033;-60
2022/09/10 01:43:57;;;;;;;0.90;0.22;;;;;;;16.83;100.00;100364.56;5033843;28;20017;-62
2022/09/10 01:46:49;;;;;;;1.33;0.40;;;;;;;16.84;100.00;100372.28;5043766;28;20065;-62
2022/09/10 01:49:36;;;;;;;2.88;0.52;;;;;;;16.75;100.00;100378.66;5013640;28;20442;-59
2022/09/10 01:52:14;;;;;;;0.77;0.20;;;;;;;16.80;100.00;100373.66;5025209;28;20037;-61
2022/09/10 01:54:51;;;;;;;3.25;0.20;;;;;;;16.83;100.00;100375.91;5026605;28;20227;-64
2022/09/10 01:57:35;;;;;;;2.47;0.20;;;;;;;16.73;100.00;100382.47;5018013;28;20424;-62
2022/09/10 02:00:10;;;;;;;2.55;0.28;;;;;;;16.73;100.00;100378.03;5027347;28;20037;-63
2022/09/10 02:02:40;;;;;;;2.40;0.30;;;;;;;16.74;100.00;100377.03;5026661;28;20147;-60
2022/09/10 02:05:08;;;;;;;0.68;0.10;;;;;;;16.77;100.00;100374.03;5009633;28;20125;-62
2022/09/10 02:07:35;;;;;;;4.00;0.30;;;;;;;16.76;100.00;100382.91;5025456;28;20029;-63
2022/09/10 02:10:04;;;;;;;0.73;0.20;;;;;;;16.66;100.00;100376.31;5024524;28;20045;-64
2022/09/10 02:12:30;;;;;;;0.85;0.20;;;;;;;16.69;100.00;100376.75;5025664;28;20028;-61
2022/09/10 02:14:57;;;;;;;1.98;0.20;;;;;;;16.71;100.00;100390.53;5027221;28;20033;-60
2022/09/10 02:17:32;;;;;;;1.23;0.20;;;;;;;16.67;100.00;100391.09;5026370;28;20339;-62
2022/09/10 02:19:59;;;;;;;1.05;0.20;;;;;;;16.68;100.00;100390.09;5025212;28;20041;-63
2022/09/10 02:22:25;;;;;;;1.52;0.20;;;;;;;16.67;100.00;100389.28;5025344;28;20033;-63
2022/09/10 02:24:51;;;;;;;0.40;0.22;;;;;;;16.66;100.00;100381.56;5026415;28;20470;-64
2022/09/10 02:27:17;;;;;;;2.15;0.30;;;;;;;16.61;100.00;100379.47;5028245;28;20111;-62
2022/09/10 02:29:42;;;;;;;2.83;0.38;;;;;;;16.55;100.00;100374.94;5028408;28;20564;-64
2022/09/10 02:32:08;;;;;;;0.90;0.20;;;;;;;16.53;100.00;100379.59;5031077;28;20417;-62
2022/09/10 02:34:35;;;;;;;5.10;0.30;;;;;;;16.44;100.00;100385.97;5026640;28;20504;-61
2022/09/10 02:37:02;;;;;;;0.30;0.20;;;;;;;16.42;100.00;100385.34;5028147;28;20191;-62
2022/09/10 02:39:29;;;;;;;1.48;0.20;;;;;;;16.39;100.00;100380.44;5018881;28;20143;-64
2022/09/10 02:41:54;;;;;;;0.90;0.20;;;;;;;16.37;100.00;100385.06;5028816;28;20052;-64
2022/09/10 02:44:20;;;;;;;1.58;0.20;;;;;;;16.36;100.00;100376.38;5029981;28;20175;-61
2022/09/10 02:46:46;;;;;;;0.68;0.28;;;;;;;16.30;100.00;100381.53;5030187;28;20056;-63
2022/09/10 02:49:12;;;;;;;1.55;0.20;;;;;;;16.19;100.00;100386.25;5023508;28;20026;-63
2022/09/10 02:51:38;;;;;;;4.10;0.30;;;;;;;16.19;100.00;100394.16;5030050;28;20048;-63
2022/09/10 02:54:04;;;;;;;3.47;0.77;;;;;;;16.18;100.00;100396.97;5018454;28;20057;-62
2022/09/10 02:56:30;;;;;;;2.05;0.20;;;;;;;16.13;100.00;100389.63;5029781;28;20044;-62
2022/09/10 02:58:55;;;;;;;2.78;0.20;;;;;;;16.17;100.00;100380.38;5028204;28;20434;-62
2022/09/10 03:01:21;;;;;;;1.25;0.30;;;;;;;16.18;100.00;100386.44;5021435;28;20447;-62
2022/09/10 03:03:53;;;;;;;1.60;0.20;;;;;;;16.11;100.00;100394.25;5029078;28;20021;-62
2022/09/10 03:06:20;;;;;;;1.08;0.20;;;;;;;16.11;100.00;100383.72;5023063;28;20481;-61
2022/09/10 03:08:47;;;;;;;1.83;0.25;;;;;;;16.08;100.00;100391.97;5028627;28;20032;-63
2022/09/10 03:11:14;;;;;;;2.70;0.20;;;;;;;16.05;100.00;100391.56;5024979;28;20064;-62
2022/09/10 03:13:39;;;;;;;0.85;0.30;;;;;;;16.12;100.00;100385.34;5024447;28;20084;-61
2022/09/10 03:16:05;;;;;;;1.20;0.20;;;;;;;16.10;100.00;100395.22;5028862;28;20527;-63
2022/09/10 03:18:31;;;;;;;1.08;0.20;;;;;;;16.12;100.00;100400.31;5025568;28;20218;-62
2022/09/10 03:21:11;;;;;;;2.55;0.10;;;;;;;16.13;100.00;100397.50;5010910;28;20168;-64
2022/09/10 03:23:38;;;;;;;6.18;0.20;;;;;;;16.09;100.00;100401.50;5019566;28;20075;-63
2022/09/10 03:26:04;;;;;;;0.98;0.20;;;;;;;16.16;100.00;100407.66;5011699;28;20071;-62
2022/09/10 03:28:31;;;;;;;4.55;0.40;;;;;;;16.12;100.00;100409.00;5028604;28;20025;-60
2022/09/10 03:30:57;;;;;;;1.27;0.13;;;;;;;16.03;100.00;100412.75;5030061;28;20080;-63
2022/09/10 03:33:23;;;;;;;3.25;0.20;;;;;;;16.03;100.00;100415.38;5026006;28;20059;-62
2022/09/10 03:35:48;;;;;;;0.30;0.17;;;;;;;15.95;100.00;100427.78;5029619;28;20087;-60
2022/09/10 03:38:14;;;;;;;1.60;0.20;;;;;;;15.91;100.00;100432.59;5027034;28;20076;-62
2022/09/10 03:40:40;;;;;;;1.95;0.20;;;;;;;15.84;100.00;100434.28;5023770;28;20388;-64
2022/09/10 03:43:05;;;;;;;1.70;0.22;;;;;;;15.82;100.00;100441.53;5027242;28;20033;-62
2022/09/10 03:45:31;;;;;;;7.18;0.28;;;;;;;15.79;100.00;100434.00;5028882;28;20594;-63
2022/09/10 03:47:56;;;;;;;2.60;0.20;;;;;;;15.78;100.00;100424.50;5027644;28;20045;-62
2022/09/10 03:50:22;;;;;;;2.60;0.20;;;;;;;15.79;100.00;100431.38;5027647;28;20444;-61
2022/09/10 03:52:48;;;;;;;2.30;0.40;;;;;;;15.73;100.00;100437.34;5027471;28;20068;-62
2022/09/10 03:55:15;;;;;;;3.13;0.30;;;;;;;15.71;100.00;100439.34;5011691;28;20048;-61
2022/09/10 03:57:40;;;;;;;1.63;0.75;;;;;;;15.70;100.00;100432.44;5012255;28;20134;-63
2022/09/10 04:00:10;;;;;;;3.70;0.30;;;;;;;15.68;100.00;100431.81;5028027;28;20069;-62
2022/09/10 04:02:36;;;;;;;0.68;0.20;;;;;;;15.67;100.00;100438.06;5019589;28;20149;-60
2022/09/10 04:05:02;;;;;;;2.58;0.60;;;;;;;15.71;100.00;100444.59;5009977;28;20437;-62
2022/09/10 04:07:29;;;;;;;4.63;0.30;;;;;;;15.72;100.00;100446.22;5027846;28;20037;-64
2022/09/10 04:09:54;;;;;;;3.60;0.30;;;;;;;15.69;100.00;100443.94;5009950;28;20037;-59
2022/09/10 04:12:20;;;;;;;5.93;1.02;;;;;;;15.63;100.00;100444.66;5026580;28;20463;-64
2022/09/10 04:14:46;;;;;;;1.63;0.30;;;;;;;15.54;100.00;100452.59;5025730;28;20379;-62
2022/09/10 04:17:11;;;;;;;2.92;0.63;;;;;;;15.55;100.00;100446.34;5024091;28;20041;-63
2022/09/10 04:19:39;;;;;;;1.02;0.30;;;;;;;15.57;100.00;100446.22;5020071;28;20037;-61
2022/09/10 04:22:04;;;;;;;1.63;0.38;;;;;;;15.59;100.00;100441.59;5010381;28;20033;-62
2022/09/10 04:24:30;;;;;;;2.53;0.20;;;;;;;15.59;100.00;100446.84;5025354;28;20501;-63
2022/09/10 04:26:56;;;;;;;1.08;0.20;;;;;;;15.54;100.00;100452.59;5026184;28;20064;-59
2022/09/10 04:29:22;;;;;;;2.80;0.25;;;;;;;15.51;100.00;100455.56;5026283;28;20036;-61
2022/09/10 04:31:47;;;;;;;2.90;0.30;;;;;;;15.50;100.00;100464.44;5028085;28;20570;-60
2022/09/10 04:34:14;;;;;;;0.80;0.20;;;;;;;15.52;100.00;100467.72;5024113;28;20033;-61
2022/09/10 04:36:40;;;;;;;2.30;0.30;;;;;;;15.50;100.00;100474.13;5008096;28;20812;-61
2022/09/10 04:39:05;;;;;;;1.77;0.30;;;;;;;15.48;100.00;100478.75;5023696;28;20061;-60
2022/09/10 04:41:31;;;;;;;4.88;0.43;;;;;;;15.48;100.00;100479.56;5027930;28;20212;-62
2022/09/10 04:43:57;;;;;;;1.35;0.30;;;;;;;15.48;100.00;100473.50;5024625;28;20032;-61
2022/09/10 04:46:23;;;;;;;2.90;0.25;;;;;;;15.47;100.00;100464.78;5027790;28;20087;-60
2022/09/10 04:48:48;;;;;;;5.43;0.35;;;;;;;15.47;100.00;100463.97;5024944;28;20036;-63
2022/09/10 04:51:14;;;;;;;3.67;0.25;;;;;;;15.48;100.00;100465.63;5027809;28;20055;-64
2022/09/10 04:53:40;;;;;;;4.22;0.30;;;;;;;15.52;100.00;100467.72;5026424;28;20115;-64
2022/09/10 04:56:07;;;;;;;0.77;0.20;;;;;;;15.55;100.00;100474.41;5028720;28;20029;-60
2022/09/10 04:58:32;;;;;;;1.17;0.30;;;;;;;15.53;100.00;100479.03;5025947;28;20132;-62
2022/09/10 05:00:58;;;;;;;3.88;0.30;;;;;;;15.54;100.00;100478.84;5024032;28;20417;-62
2022/09/10 05:03:23;;;;;;;3.00;0.30;;;;;;;15.56;100.00;100457.69;5026691;28;20029;-63
2022/09/10 05:05:49;;;;;;;3.50;0.30;;;;;;;15.54;100.00;100454.41;5028435;28;20565;-61
2022/09/10 05:08:16;;;;;;;5.00;0.25;;;;;;;15.53;100.00;100448.34;5027402;28;20574;-63
2022/09/10 05:10:41;;;;;;;0.50;0.30;;;;;;;15.49;100.00;100457.56;5027426;28;20033;-60
2022/09/10 05:13:07;;;;;;;2.67;0.25;;;;;;;15.52;100.00;100467.72;5024382;28;20026;-63
2022/09/10 05:15:34;;;;;;;1.33;0.35;;;;;;;15.53;100.00;100476.41;5023596;28;20030;-59
2022/09/10 05:18:00;;;;;;;4.18;0.47;;;;;;;15.53;100.00;100479.84;5027518;28;20481;-60
2022/09/10 05:20:26;;;;;;;3.72;0.60;;;;;;;15.52;100.00;100477.41;5026826;28;20037;-59
2022/09/10 05:22:53;;;;;;;5.00;0.50;;;;;;;15.48;100.00;100484.81;5026243;28;20047;-60
2022/09/10 05:25:21;;;;;;;5.53;0.47;;;;;;;15.56;100.00;100476.91;5020915;28;20021;-64
2022/09/10 05:27:48;;;;;;;6.15;0.90;;;;;;;15.62;100.00;100470.09;5026107;28;20048;-61
2022/09/10 05:30:13;;;;;;;3.17;0.50;;;;;;;15.65;100.00;100466.31;5014025;28;20429;-63
2022/09/10 05:32:39;;;;;;;3.63;1.02;;;;;;;15.63;100.00;100484.06;5027563;28;20025;-62
2022/09/10 05:35:06;;;;;;;1.83;0.52;;;;;;;15.64;100.00;100476.00;5026352;28;20044;-63
2022/09/10 05:37:32;;;;;;;4.97;0.77;;;;;;;15.66;100.00;100489.78;5026010;28;20501;-66
2022/09/10 05:39:58;;;;;;;5.57;0.63;;;;;;;15.68;100.00;100493.03;5025849;28;20061;-62
2022/09/10 05:42:24;;;;;;;1.17;0.50;;;;;;;15.71;100.00;100497.94;5006647;28;20549;-62
2022/09/10 05:44:50;;;;;;;1.52;0.52;;;;;;;15.73;100.00;100489.88;5023172;28;20022;-59
2022/09/10 05:47:16;;;;;;;6.20;0.32;;;;;;;15.68;100.00;100490.41;5022496;28;20393;-61
2022/09/10 05:49:41;;;;;;;3.25;0.40;;;;;;;15.66;100.00;100494.19;5025002;28;20027;-60
2022/09/10 05:52:08;;;;;;;7.97;1.23;;;;;;;15.69;100.00;100493.84;5026282;28;20104;-59
2022/09/10 05:54:35;;;;;;;0.90;0.32;;;;;;;15.68;100.00;100498.28;5013361;28;20037;-61
2022/09/10 05:57:00;;;;;;;4.75;0.30;;;;;;;15.71;100.00;100499.75;5026395;28;20358;-63
2022/09/10 05:59:26;;;;;;;1.23;0.30;;;;;;;15.70;100.00;100500.75;5025535;28;20029;-63
2022/09/10 06:01:51;;;;;;;3.53;0.38;;;;;;;15.71;100.00;100505.00;5025781;28;20040;-61
2022/09/10 06:04:19;;;;;;;2.88;0.40;;;;;;;15.70;100.00;100500.75;5023469;28;20033;-63
2022/09/10 06:06:46;;;;;;;3.75;0.32;;;;;;;15.73;100.00;100505.63;5022108;28;20029;-62
2022/09/10 06:09:12;;;;;;;1.08;0.35;;;;;;;15.74;100.00;100515.16;5003467;28;20032;-63
2022/09/10 06:11:38;;;;;;;1.48;0.30;;;;;;;15.75;100.00;100509.72;5024333;28;20041;-61
2022/09/10 06:14:04;;;;;;;2.55;0.40;;;;;;;15.80;100.00;100498.69;5027400;28;20038;-63
2022/09/10 06:16:30;;;;;;;3.80;0.50;;;;;;;15.89;100.00;100495.00;5025112;28;20025;-60
2022/09/10 06:18:57;;;;;;;4.75;0.60;;;;;;;15.98;100.00;100501.81;5024610;28;20529;-62
2022/09/10 06:21:23;;;;;;;3.15;0.50;;;;;;;16.07;100.00;100500.72;5008301;28;20040;-61
2022/09/10 06:23:53;;;;;;;2.65;0.50;;;;;;;16.21;100.00;100501.75;5006927;28;20072;-63
2022/09/10 06:26:19;;;;;;;3.05;0.50;;;;;;;16.33;100.00;100507.38;5027346;28;20025;-61
2022/09/10 06:28:45;;;;;;;0.60;0.30;;;;;;;16.40;100.00;100514.38;5025783;28;20040;-63
2022/09/10 06:31:15;;;;;;;2.00;0.30;;;;;;;16.50;100.00;100504.41;5024786;28;20355;-61
2022/09/10 06:33:42;;;;;;;1.98;0.40;;;;;;;16.60;100.00;100501.47;5008947;28;20029;-63
2022/09/10 06:36:08;;;;;;;3.42;0.30;;;;;;;16.77;100.00;100499.50;5028170;28;20480;-62
2022/09/10 06:38:35;;;;;;;1.20;0.15;;;;;;;16.97;100.00;100497.09;5026766;28;20029;-63
2022/09/10 06:41:04;;;;;;;1.83;0.82;;;;;;;17.18;100.00;100499.75;5025548;28;20056;-64
2022/09/10 06:43:35;;;;;;;1.05;0.15;;;;;;;17.34;100.00;100496.06;5023919;28;20036;-63
2022/09/10 06:46:08;;;;;;;7.18;0.32;;;;;;;17.50;100.00;100486.06;5026869;28;20025;-63
2022/09/10 06:48:38;;;;;;;3.05;0.10;;;;;;;17.61;100.00;100487.41;5008436;28;20058;-61
2022/09/10 06:51:04;;;;;;;0.73;0.10;;;;;;;17.75;100.00;100486.53;5026192;28;20072;-64
2022/09/10 06:53:32;;;;;;;1.48;0.10;;;;;;;17.89;100.00;100488.28;5025808;28;20033;-62
2022/09/10 06:55:58;;;;;;;1.77;0.10;;;;;;;18.01;100.00;100478.00;5026043;28;20038;-62
2022/09/10 06:58:24;;;;;;;2.35;0.20;;;;;;;18.17;100.00;100485.63;5026138;28;20488;-62
2022/09/10 07:00:50;;;;;;;1.67;0.20;;;;;;;18.34;100.00;100482.69;5026678;28;20029;-64
2022/09/10 07:03:17;;;;;;;0.65;0.10;;;;;;;18.44;100.00;100478.66;5025141;28;20052;-64
2022/09/10 07:05:47;;;;;;;1.27;0.40;;;;;;;18.58;100.00;100477.72;5026694;28;20052;-63
2022/09/10 07:08:15;;;;;;;2.97;0.10;;;;;;;18.79;100.00;100481.28;5024016;28;20555;-62
2022/09/10 07:10:45;;;;;;;1.52;0.20;;;;;;;18.96;100.00;100481.72;5007622;28;20029;-61
2022/09/10 07:13:12;;;;;;;1.23;0.20;;;;;;;19.16;100.00;100487.91;5025445;28;20036;-66
2022/09/10 07:15:46;;;;;;;2.45;0.20;;;;;;;19.23;98.32;100484.25;5030545;28;20041;-64
2022/09/10 07:18:15;;;;;;;3.10;0.30;;;;;;;19.34;98.26;100485.50;5030371;28;20029;-65
2022/09/10 07:20:45;;;;;;;0.60;0.20;;;;;;;19.44;98.86;100488.53;5029357;28;20158;-65
2022/09/10 07:23:12;;;;;;;2.97;0.35;;;;;;;19.54;98.60;100496.09;5010447;28;20029;-65
2022/09/10 07:25:39;;;;;;;0.43;0.15;;;;;;;19.69;97.64;100498.56;5026969;28;20071;-66
2022/09/10 07:28:05;;;;;;;2.10;0.60;;;;;;;19.72;97.94;100492.88;5027727;28;20116;-65
2022/09/10 07:30:32;;;;;;;1.73;0.20;;;;;;;19.77;97.26;100498.34;5028676;28;20113;-64
2022/09/10 07:32:57;;;;;;;0.95;0.20;;;;;;;19.87;97.89;100507.47;5028030;28;20339;-67
2022/09/10 07:35:24;;;;;;;2.53;0.30;;;;;;;19.95;96.34;100509.09;5029017;28;20036;-65
2022/09/10 07:37:49;;;;;;;3.63;0.28;;;;;;;20.05;94.37;100504.22;4995938;28;20032;-66
2022/09/10 07:40:15;;;;;;;9.85;0.30;;;;;;;20.14;94.87;100505.63;5030092;28;20029;-65
2022/09/10 07:42:42;;;;;;;0.75;0.10;;;;;;;20.15;95.71;100504.63;5009939;28;20036;-64
2022/09/10 07:45:12;;;;;;;2.78;0.20;;;;;;;20.21;96.64;100513.56;5010990;28;20036;-66
2022/09/10 07:47:39;;;;;;;2.92;0.10;;;;;;;20.29;96.38;100515.19;5023904;28;20053;-66
2022/09/10 07:50:06;;;;;;;1.65;0.10;;;;;;;20.41;95.78;100513.53;5005843;28;20798;-66
2022/09/10 07:52:32;;;;;;;3.60;0.10;;;;;;;20.53;94.68;100518.00;5027304;28;20184;-65
2022/09/10 07:54:57;;;;;;;1.23;0.10;;;;;;;20.66;94.58;100513.69;5028207;28;20033;-65
2022/09/10 07:57:23;;;;;;;1.95;0.10;;;;;;;20.77;94.08;100510.38;5029838;28;20437;-65
2022/09/10 07:59:48;;;;;;;2.38;0.10;;;;;;;20.84;93.65;100514.59;5028667;28;20030;-66
2022/09/10 08:02:14;;;;;;;1.23;0.57;;;;;;;20.96;93.28;100513.94;5029056;28;20477;-66
2022/09/10 08:04:40;;;;;;;0.40;0.17;;;;;;;21.08;90.84;100520.22;5028899;28;20136;-65
2022/09/10 08:07:05;;;;;;;1.63;0.10;;;;;;;21.09;90.17;100525.31;5028303;28;20033;-66
2022/09/10 08:09:31;;;;;;;0.70;0.10;;;;;;;21.07;90.29;100524.69;5029290;28;20025;-67
2022/09/10 08:11:56;;;;;;;0.95;0.10;;;;;;;21.09;90.73;100521.84;5028407;28;20083;-67
2022/09/10 08:14:22;;;;;;;1.63;0.10;;;;;;;21.22;90.15;100529.75;5029394;28;20029;-68
2022/09/10 08:16:48;;;;;;;1.95;0.10;;;;;;;21.31;89.05;100531.09;5028562;28;20029;-67
2022/09/10 08:19:13;;;;;;;0.30;0.10;;;;;;;21.37;88.91;100530.25;5024420;28;20034;-67
2022/09/10 08:21:39;;;;;;;0.32;0.10;;;;;;;21.53;87.39;100524.44;5010715;28;20025;-66
2022/09/10 08:24:05;;;;;;;1.17;0.10;;;;;;;21.64;89.00;100530.09;5025072;28;20112;-67
2022/09/10 08:26:32;;;;;;;3.72;0.13;;;;;;;21.72;88.74;100522.69;5029103;28;20164;-65
2022/09/10 08:28:58;;;;;;;4.68;0.52;;;;;;;21.69;88.23;100532.91;5026935;28;20028;-66
2022/09/10 08:31:25;;;;;;;0.57;0.08;;;;;;;21.64;86.36;100524.78;5028050;28;20034;-66
2022/09/10 08:33:53;;;;;;;0.20;0.03;;;;;;;21.69;86.65;100524.97;5026927;28;20029;-66
2022/09/10 08:36:20;;;;;;;0.40;0.10;;;;;;;21.85;86.75;100532.34;5011252;28;20045;-67
2022/09/10 08:38:47;;;;;;;3.08;0.10;;;;;;;21.81;85.19;100533.81;5029224;28;20029;-66
2022/09/10 08:41:16;;;;;;;2.60;0.20;;;;;;;21.70;84.70;100530.03;5026441;28;20048;-66
2022/09/10 08:43:51;;;;;;;1.33;0.10;;;;;;;21.67;81.51;100529.66;5028721;28;20106;-66
2022/09/10 08:46:26;;;;;;;0.20;0.00;;;;;;;21.73;82.35;100534.09;5028925;28;20047;-65
2022/09/10 08:49:17;;;;;;;2.42;0.10;;;;;;;21.64;79.66;100535.41;5027622;28;20045;-66
2022/09/10 08:51:45;;;;;;;1.65;0.10;;;;;;;21.69;84.29;100540.88;5027864;28;20041;-66
2022/09/10 08:54:17;;;;;;;0.30;0.10;;;;;;;21.80;82.30;100537.50;5028732;28;20031;-66
2022/09/10 08:56:44;;;;;;;0.20;0.10;;;;;;;21.81;81.01;100531.97;5028826;28;20476;-67
2022/09/10 08:59:34;;;;;;;0.45;0.10;;;;;;;21.79;78.81;100534.03;5008564;28;20033;-67
2022/09/10 09:02:15;;;;;;;0.20;0.03;;;;;;;21.80;80.15;100535.66;5027369;28;20045;-67
2022/09/10 09:04:57;;;;;;;0.40;0.10;;;;;;;21.77;80.07;100538.72;5028399;28;20026;-68
2022/09/10 09:07:23;;;;;;;0.50;0.10;;;;;;;21.69;83.65;100540.88;5010756;28;20083;-68
2022/09/10 09:09:50;;;;;;;2.58;0.20;;;;;;;21.60;82.12;100544.81;5028365;28;20018;-67
2022/09/10 09:12:37;;;;;;;2.13;0.10;;;;;;;21.46;80.86;100549.38;5027122;28;20052;-68
2022/09/10 09:15:19;;;;;;;0.82;0.10;;;;;;;21.39;85.23;100548.59;5028246;28;20772;-68
2022/09/10 09:17:53;;;;;;;2.55;0.10;;;;;;;21.42;82.41;100546.34;5023944;28;20033;-68
2022/09/10 09:20:36;;;;;;;2.47;0.10;;;;;;;21.46;82.45;100558.13;5023887;28;20045;-68
2022/09/10 09:23:18;;;;;;;1.40;0.10;;;;;;;21.45;80.29;100551.22;5019302;28;20288;-68
2022/09/10 09:25:48;;;;;;;1.40;0.20;;;;;;;21.64;82.07;100546.00;5023122;28;20420;-68
2022/09/10 09:28:21;;;;;;;3.92;0.20;;;;;;;21.59;79.88;100549.28;5028620;28;20040;-68
2022/09/10 09:30:48;;;;;;;0.30;0.10;;;;;;;21.64;81.17;100544.16;5028607;28;20527;-68
2022/09/10 09:33:18;;;;;;;0.63;0.00;;;;;;;21.74;78.58;100541.81;5028038;28;20145;-69
2022/09/10 09:36:04;;;;;;;0.60;0.10;;;;;;;21.74;73.01;100541.03;5027689;28;20474;-68
2022/09/10 09:38:47;;;;;;;1.75;0.10;;;;;;;21.70;78.93;100537.19;5026052;28;20041;-68
2022/09/10 09:41:24;;;;;;;0.35;0.00;;;;;;;21.62;79.01;100530.31;4989618;28;20041;-68
2022/09/10 09:43:58;;;;;;;0.20;0.10;;;;;;;21.57;78.31;100527.50;4990459;28;20402;-67
2022/09/10 09:46:24;;;;;;;0.50;0.10;;;;;;;21.63;77.04;100528.47;5008185;28;20401;-68
2022/09/10 09:48:56;;;;;;;1.77;0.00;;;;;;;21.72;75.57;100530.66;5007386;28;20030;-67
2022/09/10 09:51:24;;;;;;;0.30;0.10;;;;;;;21.83;76.04;100527.28;5008466;28;20026;-69
2022/09/10 09:53:53;;;;;;;0.40;0.10;;;;;;;21.74;75.16;100527.78;5006795;28;20044;-68
2022/09/10 09:56:24;;;;;;;0.20;0.00;;;;;;;21.67;75.99;100524.38;5019555;28;20073;-68
2022/09/10 09:58:51;;;;;;;0.30;0.00;;;;;;;21.68;76.25;100515.38;5027689;28;20029;-68
2022/09/10 10:01:22;;;;;;;1.85;0.10;;;;;;;21.67;74.97;100513.75;5027908;28;20437;-68
2022/09/10 10:03:52;;;;;;;0.55;0.20;;;;;;;21.71;73.92;100518.41;5027761;28;20633;-68
2022/09/10 10:06:24;;;;;;;0.30;0.10;;;;;;;21.95;73.64;100510.66;5026346;28;20036;-68
2022/09/10 10:09:19;;;;;;;1.33;0.10;;;;;;;22.07;71.73;100515.06;5026910;28;20677;-68
2022/09/10 10:11:50;;;;;;;0.52;0.10;;;;;;;22.11;73.88;100513.59;5008765;28;20102;-68
2022/09/10 10:14:21;;;;;;;0.65;0.10;;;;;;;22.29;71.93;100511.97;5027757;28;20084;-69
2022/09/10 10:16:51;;;;;;;0.55;0.10;;;;;;;22.34;73.30;100514.78;5026303;28;20096;-69
2022/09/10 10:19:27;;;;;;;0.17;0.10;;;;;;;22.15;73.10;100516.63;5027689;28;20075;-68
2022/09/10 10:21:53;;;;;;;0.95;0.10;;;;;;;22.11;74.40;100510.94;5027641;28;20459;-68
2022/09/10 10:24:30;;;;;;;0.65;0.10;;;;;;;22.02;70.68;100506.13;5027402;28;20495;-68
2022/09/10 10:26:58;;;;;;;0.30;0.00;;;;;;;22.09;73.69;100497.09;5023799;28;20030;-68
2022/09/10 10:29:23;;;;;;;0.60;0.10;;;;;;;22.14;72.39;100499.91;5026393;28;20045;-68
2022/09/10 10:31:50;;;;;;;0.40;0.00;;;;;;;22.22;72.19;100501.44;5026572;28;20026;-68
2022/09/10 10:34:27;;;;;;;6.90;0.20;;;;;;;22.29;71.91;100501.38;5027410;28;20567;-68
2022/09/10 10:37:31;;;;;;;0.75;0.00;;;;;;;22.41;62.79;100494.28;5027891;28;20052;-68
2022/09/10 10:40:10;;;;;;;2.08;0.32;;;;;;;22.58;62.84;100486.56;5025117;28;20045;-69
2022/09/10 10:42:53;;;;;;;0.40;0.10;;;;;;;22.56;67.17;100484.13;5024776;28;20490;-68
2022/09/10 10:45:57;;;;;;;0.35;0.00;;;;;;;22.67;65.31;100478.06;5027255;28;20041;-68
2022/09/10 10:48:45;;;;;;;0.20;0.00;;;;;;;22.65;66.93;100480.13;4964967;28;20063;-69
2022/09/10 10:51:29;;;;;;;0.68;0.10;;;;;;;22.78;68.41;100477.31;4966496;28;20097;-69
2022/09/10 10:54:10;;;;;;;0.70;0.10;;;;;;;22.98;69.14;100477.06;4951112;28;20058;-67
2022/09/10 10:56:58;;;;;;;0.10;0.00;;;;;;;23.04;67.32;100470.03;4963356;28;20038;-68
2022/09/10 10:59:27;;;;;;;0.35;0.10;;;;;;;23.06;69.10;100465.31;4952498;28;20414;-68
2022/09/10 11:02:06;;;;;;;0.25;0.05;;;;;;;23.14;67.50;100465.81;4969508;28;20073;-68
2022/09/10 11:04:42;;;;;;;0.95;0.05;;;;;;;23.03;68.60;100455.13;4934641;28;20377;-68
2022/09/10 11:07:23;;;;;;;0.38;0.00;;;;;;;22.81;66.35;100444.19;4950160;29;20047;-67
2022/09/10 11:09:57;;;;;;;0.57;0.10;;;;;;;23.00;67.75;100458.25;4950093;29;20042;-67
2022/09/10 11:12:34;;;;;;;2.05;0.10;;;;;;;23.11;66.26;100454.81;4953455;28;20049;-67
2022/09/10 11:15:18;;;;;;;0.57;0.10;;;;;;;22.92;64.34;100454.06;4969376;28;20047;-67
2022/09/10 11:17:50;;;;;;;1.48;0.10;;;;;;;22.81;68.69;100455.63;4969179;28;20042;-68
2022/09/10 11:20:25;;;;;;;0.57;0.00;;;;;;;22.80;64.20;100442.56;5027914;28;20046;-67
2022/09/10 11:23:04;;;;;;;1.17;0.00;;;;;;;22.77;66.05;100451.75;5029342;28;20096;-66
2022/09/10 11:25:36;;;;;;;0.47;0.00;;;;;;;22.98;63.38;100449.69;5031004;28;20194;-67
2022/09/10 11:28:13;;;;;;;1.45;0.00;;;;;;;22.97;61.96;100437.44;5025513;28;20053;-67
2022/09/10 11:30:45;;;;;;;2.60;0.10;;;;;;;22.91;60.76;100438.34;5025952;28;20033;-68